Terminal Aerodrome Forecast
Issued by NWS Birmingham, AL

Home | Current Version | Previous Version | Text Only | Print | Product List | Glossary On
Versions: 1 2 3 4 5 6 7 8 9 10 11 12 13 14 15 16 17 18
000
FTUS44 KBMX 181120
TAFBHM
TAF
KBHM 181120Z 1812/1912 32005KT 4SM BR OVC005
     FM181600 36003KT P6SM BKN015
     FM182100 01002KT P6SM OVC050
     FM190900 14002KT 4SM BR OVC050=

USA.gov is the U.S. government's official web portal to all federal, state and local government web resources and services.